Time;durP1;ratioP1;P1;durP2;ratioP2;P2;SDS_P1;SDS_P2;PMS_P1;PMS_P2;Temp;Humidity;BMP_temperature;BMP_pressure;BME280_temperature;BME280_humidity;BME280_pressure;Samples;Min_cycle;Max_cycle;Signal;HPM_P1;HPM_P2
2021/04/30 00:01:09;;;;;;;23.63;18.98;;;;;;;10.92;67.28;99126.81;5022390;28;20067;-83
2021/04/30 00:03:35;;;;;;;22.55;18.23;;;;;;;10.91;67.34;99125.97;5034519;28;20049;-84
2021/04/30 00:06:01;;;;;;;24.25;18.45;;;;;;;10.92;67.35;99130.28;5034464;28;20433;-84
2021/04/30 00:08:27;;;;;;;22.35;18.48;;;;;;;10.93;67.17;99126.72;5034715;28;20045;-84
2021/04/30 00:10:54;;;;;;;25.33;20.08;;;;;;;10.93;67.01;99129.34;5027286;28;20054;-84
2021/04/30 00:13:20;;;;;;;23.42;19.00;;;;;;;10.94;67.23;99125.75;5014462;28;20049;-83
2021/04/30 00:15:46;;;;;;;21.83;18.40;;;;;;;10.93;67.11;99137.25;5014522;28;20050;-84
2021/04/30 00:18:13;;;;;;;24.38;19.75;;;;;;;10.95;66.86;99143.25;5015162;28;20053;-84
2021/04/30 00:20:47;;;;;;;23.95;19.15;;;;;;;10.94;66.98;99141.56;5016006;28;20050;-84
2021/04/30 00:23:13;;;;;;;21.80;17.55;;;;;;;10.94;66.67;99146.81;5015507;28;20057;-84
2021/04/30 00:25:40;;;;;;;28.00;18.70;;;;;;;10.93;66.76;99145.16;5015490;28;20045;-84
2021/04/30 00:28:06;;;;;;;22.02;17.55;;;;;;;10.92;66.58;99148.72;5014108;28;20053;-84
2021/04/30 00:30:34;;;;;;;22.20;19.08;;;;;;;10.90;66.77;99150.63;5017568;28;20041;-84
2021/04/30 00:33:00;;;;;;;23.90;18.60;;;;;;;10.89;66.51;99155.97;5033919;28;20479;-84
2021/04/30 00:35:26;;;;;;;23.75;18.02;;;;;;;10.88;66.65;99157.75;5034384;28;20124;-84
2021/04/30 00:37:53;;;;;;;22.95;18.92;;;;;;;10.89;66.74;99158.63;5035163;28;20045;-84
2021/04/30 00:40:19;;;;;;;21.17;17.38;;;;;;;10.88;66.37;99160.41;5031443;28;20509;-84
2021/04/30 00:42:45;;;;;;;24.10;18.42;;;;;;;10.88;66.22;99168.28;5026247;28;20041;-84
2021/04/30 00:45:17;;;;;;;24.23;17.70;;;;;;;10.85;66.34;99170.31;5033692;28;20060;-84
2021/04/30 00:47:43;;;;;;;21.95;18.50;;;;;;;10.84;66.43;99174.72;5033882;28;20201;-84
2021/04/30 00:50:11;;;;;;;25.80;19.50;;;;;;;10.84;66.24;99176.53;5032964;28;20407;-83
2021/04/30 00:52:37;;;;;;;20.95;18.20;;;;;;;10.81;66.33;99178.41;5033658;28;20399;-84
2021/04/30 00:55:06;;;;;;;24.45;19.65;;;;;;;10.79;66.29;99172.41;5033611;28;20053;-84
2021/04/30 00:57:32;;;;;;;24.10;19.27;;;;;;;10.78;66.13;99172.50;5034373;28;20053;-84
2021/04/30 00:59:59;;;;;;;23.77;18.17;;;;;;;10.77;66.24;99186.63;5033944;28;20053;-83
2021/04/30 01:02:25;;;;;;;24.17;19.40;;;;;;;10.74;66.37;99182.41;5017170;28;20060;-84
2021/04/30 01:04:52;;;;;;;23.55;18.67;;;;;;;10.73;66.57;99183.34;5012411;28;20081;-84
2021/04/30 01:07:18;;;;;;;25.08;18.40;;;;;;;10.73;66.54;99185.97;5012682;28;20411;-84
2021/04/30 01:09:45;;;;;;;25.92;18.65;;;;;;;10.73;66.30;99193.03;5013491;28;20046;-84
2021/04/30 01:12:12;;;;;;;24.33;19.30;;;;;;;10.71;66.24;99198.41;5028548;28;20061;-84
2021/04/30 01:14:38;;;;;;;22.90;19.15;;;;;;;10.70;66.34;99191.47;5032177;28;20049;-84
2021/04/30 01:17:04;;;;;;;24.35;17.42;;;;;;;10.69;66.34;99198.50;5030591;28;20049;-84
2021/04/30 01:19:31;;;;;;;23.40;18.38;;;;;;;10.67;66.56;99205.66;5023059;28;20129;-84
2021/04/30 01:21:58;;;;;;;22.90;18.52;;;;;;;10.67;66.48;99210.94;5026974;28;20072;-84
2021/04/30 01:24:26;;;;;;;24.40;19.70;;;;;;;10.67;66.42;99210.06;5032597;28;20053;-84
2021/04/30 01:26:53;;;;;;;21.83;17.52;;;;;;;10.65;65.97;99210.19;5032315;28;20049;-84
2021/04/30 01:29:20;;;;;;;24.52;19.23;;;;;;;10.64;66.09;99205.00;5023747;28;20046;-84
2021/04/30 01:31:47;;;;;;;27.80;19.98;;;;;;;10.60;66.00;99208.78;5013628;28;20077;-84
2021/04/30 01:34:13;;;;;;;24.15;20.10;;;;;;;10.57;65.91;99206.38;5013726;28;20104;-83
2021/04/30 01:36:40;;;;;;;23.25;19.00;;;;;;;10.52;66.05;99207.53;5013397;28;20046;-83
2021/04/30 01:39:10;;;;;;;22.48;18.92;;;;;;;10.48;66.22;99211.31;5019867;28;20474;-83
2021/04/30 01:41:37;;;;;;;22.23;18.27;;;;;;;10.43;66.25;99213.34;5032565;28;20053;-84
2021/04/30 01:44:08;;;;;;;21.50;17.20;;;;;;;10.38;66.15;99215.44;5023946;28;20383;-84
2021/04/30 01:46:35;;;;;;;22.35;17.67;;;;;;;10.37;65.94;99219.00;5014167;28;20057;-84
2021/04/30 01:49:03;;;;;;;25.02;18.42;;;;;;;10.32;65.94;99226.34;5014280;28;20053;-84
2021/04/30 01:51:29;;;;;;;24.95;17.75;;;;;;;10.28;65.76;99229.19;5014284;28;20046;-84
2021/04/30 01:53:56;;;;;;;23.92;18.70;;;;;;;10.21;65.59;99229.69;5016089;28;20451;-84
2021/04/30 01:56:22;;;;;;;20.60;17.55;;;;;;;10.16;65.71;99225.56;5016868;28;20042;-84
2021/04/30 01:58:48;;;;;;;23.15;19.02;;;;;;;10.10;65.86;99223.28;5019819;28;20045;-84
2021/04/30 02:01:15;;;;;;;28.17;19.17;;;;;;;10.04;66.00;99237.72;5037977;28;20375;-84
2021/04/30 02:03:41;;;;;;;27.13;20.13;;;;;;;10.01;66.33;99243.16;5036671;28;20137;-84
2021/04/30 02:06:07;;;;;;;24.90;18.88;;;;;;;9.97;66.28;99246.91;5036874;28;20045;-84
2021/04/30 02:08:33;;;;;;;25.13;18.85;;;;;;;9.95;66.50;99248.81;5036420;28;20064;-84
2021/04/30 02:11:02;;;;;;;25.45;20.05;;;;;;;9.93;66.59;99258.56;5017305;28;20080;-84
2021/04/30 02:13:28;;;;;;;23.75;18.38;;;;;;;9.92;66.94;99259.50;5017255;28;20054;-84
2021/04/30 02:15:55;;;;;;;29.48;20.08;;;;;;;9.91;67.01;99260.47;5016660;28;20506;-84
2021/04/30 02:18:22;;;;;;;27.75;19.48;;;;;;;9.92;66.98;99267.41;5016256;28;20050;-84
2021/04/30 02:20:49;;;;;;;27.23;20.60;;;;;;;9.91;67.39;99265.72;5034845;28;20057;-84
2021/04/30 02:23:15;;;;;;;25.40;19.70;;;;;;;9.93;67.18;99274.34;5037277;28;20053;-84
2021/04/30 02:25:42;;;;;;;25.35;19.70;;;;;;;9.94;67.68;99272.56;5037058;28;20046;-84
2021/04/30 02:28:08;;;;;;;26.13;21.08;;;;;;;9.96;67.53;99276.78;5035521;28;20049;-84
2021/04/30 02:30:37;;;;;;;29.25;21.13;;;;;;;9.97;67.53;99275.84;5018682;28;20406;-84
2021/04/30 02:33:05;;;;;;;28.80;22.10;;;;;;;10.01;67.79;99281.72;5016069;28;20057;-84
2021/04/30 02:35:43;;;;;;;28.33;20.95;;;;;;;10.00;67.99;99290.56;5015184;28;20046;-84
2021/04/30 02:38:12;;;;;;;27.65;21.65;;;;;;;10.04;68.01;99287.66;5016061;28;20049;-83
2021/04/30 02:40:40;;;;;;;32.53;21.83;;;;;;;10.07;67.90;99293.66;5031621;28;20057;-84
2021/04/30 02:43:09;;;;;;;29.40;22.48;;;;;;;10.08;67.91;99292.72;5036371;28;20510;-83
2021/04/30 02:45:35;;;;;;;29.85;22.33;;;;;;;10.11;67.86;99297.78;5036153;28;20075;-84
2021/04/30 02:48:08;;;;;;;31.45;22.13;;;;;;;10.12;67.60;99288.94;5036895;28;20060;-84
2021/04/30 02:50:34;;;;;;;31.20;22.05;;;;;;;10.15;67.60;99294.03;5019855;28;20058;-84
2021/04/30 02:53:00;;;;;;;34.83;23.55;;;;;;;10.17;67.85;99303.50;5026758;28;20057;-84
2021/04/30 02:55:26;;;;;;;30.77;23.13;;;;;;;10.20;67.86;99299.84;5035524;28;20052;-83
2021/04/30 02:57:54;;;;;;;31.10;23.30;;;;;;;10.20;67.73;99302.47;5035120;28;20099;-83
2021/04/30 03:00:22;;;;;;;30.45;23.08;;;;;;;10.21;67.81;99304.16;5020055;28;20491;-84
2021/04/30 03:02:49;;;;;;;27.30;22.08;;;;;;;10.22;67.87;99305.00;5015987;28;20058;-84
2021/04/30 03:05:16;;;;;;;31.83;23.98;;;;;;;10.22;67.72;99310.25;5016279;28;20050;-84
2021/04/30 03:07:43;;;;;;;30.92;23.02;;;;;;;10.22;67.82;99303.22;5016017;28;20049;-84
2021/04/30 03:10:10;;;;;;;31.17;22.42;;;;;;;10.25;67.87;99310.09;5016848;28;20053;-83
2021/04/30 03:12:36;;;;;;;33.15;24.50;;;;;;;10.24;67.76;99303.16;5016295;28;20101;-83
2021/04/30 03:15:03;;;;;;;36.33;26.02;;;;;;;10.24;68.04;99306.59;5016177;28;20053;-84
2021/04/30 03:17:30;;;;;;;39.28;26.52;;;;;;;10.24;67.75;99308.41;5015655;28;20052;-84
2021/04/30 03:19:56;;;;;;;38.80;28.30;;;;;;;10.25;67.83;99307.44;5026415;28;20060;-84
2021/04/30 03:22:22;;;;;;;44.25;30.13;;;;;;;10.25;67.72;99307.44;5034465;28;20057;-84
2021/04/30 03:24:49;;;;;;;39.78;29.33;;;;;;;10.25;67.97;99310.91;5035414;28;20399;-84
2021/04/30 03:27:15;;;;;;;46.75;31.13;;;;;;;10.26;67.81;99309.13;5035639;28;20495;-83
2021/04/30 03:29:41;;;;;;;40.67;29.60;;;;;;;10.25;67.90;99305.66;5025622;28;20115;-83
2021/04/30 03:32:08;;;;;;;42.08;29.27;;;;;;;10.26;67.81;99312.63;5015676;28;20057;-83
2021/04/30 03:34:36;;;;;;;44.83;31.63;;;;;;;10.26;68.14;99306.50;5014160;28;20065;-83
2021/04/30 03:37:03;;;;;;;44.20;30.83;;;;;;;10.26;68.02;99312.63;5015933;28;20125;-84
2021/04/30 03:39:29;;;;;;;38.80;28.38;;;;;;;10.28;68.05;99316.00;5018229;28;20053;-84
2021/04/30 03:41:56;;;;;;;44.63;30.58;;;;;;;10.29;68.03;99322.09;5015709;28;20078;-83
2021/04/30 03:44:22;;;;;;;46.53;31.33;;;;;;;10.29;68.08;99315.03;5015676;28;20058;-83
2021/04/30 03:46:48;;;;;;;44.13;31.70;;;;;;;10.28;68.00;99318.63;5015481;28;20046;-83
2021/04/30 03:49:15;;;;;;;43.70;31.30;;;;;;;10.28;68.05;99318.63;5014642;28;20513;-84
2021/04/30 03:51:41;;;;;;;45.10;30.60;;;;;;;10.27;68.30;99322.19;5015891;28;20050;-83
2021/04/30 03:54:07;;;;;;;47.25;31.05;;;;;;;10.28;68.02;99326.50;5015243;28;20050;-83
2021/04/30 03:56:33;;;;;;;46.45;31.10;;;;;;;10.27;68.29;99324.81;5013924;28;20491;-84
2021/04/30 03:58:59;;;;;;;47.70;31.65;;;;;;;10.28;68.15;99325.69;5016420;28;20625;-84
2021/04/30 04:01:25;;;;;;;49.10;31.17;;;;;;;10.28;68.38;99326.50;5035070;28;20107;-84
2021/04/30 04:03:53;;;;;;;53.33;32.05;;;;;;;10.29;68.41;99324.75;5034422;28;20053;-83
2021/04/30 04:06:23;;;;;;;48.60;31.90;;;;;;;10.32;68.23;99326.31;5035148;28;20128;-84
2021/04/30 04:08:49;;;;;;;48.10;31.77;;;;;;;10.32;68.52;99326.31;5034386;28;20049;-84
2021/04/30 04:11:15;;;;;;;44.92;30.10;;;;;;;10.33;68.41;99338.53;5013802;28;20054;-84
2021/04/30 04:13:42;;;;;;;49.95;33.03;;;;;;;10.34;68.42;99337.59;5014501;28;20046;-84
2021/04/30 04:16:09;;;;;;;51.45;31.70;;;;;;;10.34;68.50;99337.59;5013648;28;20130;-84
2021/04/30 04:18:35;;;;;;;53.92;32.40;;;;;;;10.35;68.53;99328.78;5014862;28;20566;-83
2021/04/30 04:21:02;;;;;;;52.42;32.95;;;;;;;10.37;68.48;99334.75;5032620;28;20072;-84
2021/04/30 04:23:28;;;;;;;48.88;32.40;;;;;;;10.36;68.63;99335.72;5034740;28;20053;-84
2021/04/30 04:25:54;;;;;;;48.85;30.88;;;;;;;10.38;68.79;99339.09;5034501;28;20049;-84
2021/04/30 04:28:20;;;;;;;53.95;31.83;;;;;;;10.39;68.62;99333.72;5034714;28;20049;-83
2021/04/30 04:30:46;;;;;;;51.38;30.35;;;;;;;10.41;68.46;99336.25;5018161;28;20454;-84
2021/04/30 04:33:13;;;;;;;50.20;30.67;;;;;;;10.43;68.49;99339.63;5014777;28;20046;-84
2021/04/30 04:35:39;;;;;;;49.28;30.77;;;;;;;10.46;68.53;99343.91;5014026;28;20046;-84
2021/04/30 04:38:06;;;;;;;46.50;30.52;;;;;;;10.47;68.51;99353.50;5014872;28;20096;-84
2021/04/30 04:40:32;;;;;;;52.15;30.80;;;;;;;10.48;68.73;99353.41;5027689;28;20053;-84
2021/04/30 04:42:58;;;;;;;50.92;31.08;;;;;;;10.49;68.66;99360.34;5033524;28;20050;-84
2021/04/30 04:45:24;;;;;;;48.00;30.70;;;;;;;10.51;68.75;99371.59;5032520;28;20061;-84
2021/04/30 04:47:50;;;;;;;46.10;30.65;;;;;;;10.53;68.59;99371.50;5034569;28;20050;-84
2021/04/30 04:50:17;;;;;;;48.33;30.02;;;;;;;10.53;68.63;99374.13;5022036;28;20498;-84
2021/04/30 04:52:43;;;;;;;41.30;27.83;;;;;;;10.55;68.88;99374.91;5013895;28;20053;-83
2021/04/30 04:55:11;;;;;;;47.08;29.13;;;;;;;10.58;68.86;99372.06;5014656;28;20115;-84
2021/04/30 04:57:42;;;;;;;48.60;29.33;;;;;;;10.59;68.69;99373.78;5013810;28;20042;-84
2021/04/30 05:00:09;;;;;;;38.25;25.58;;;;;;;10.65;68.83;99375.16;5013317;28;20050;-84
2021/04/30 05:02:35;;;;;;;42.92;27.38;;;;;;;10.66;68.83;99379.50;5012971;28;20396;-83
2021/04/30 05:05:02;;;;;;;38.17;27.02;;;;;;;10.70;68.88;99388.88;5014123;28;20053;-84
2021/04/30 05:07:28;;;;;;;41.15;26.20;;;;;;;10.72;68.69;99388.78;5014286;28;20060;-83
2021/04/30 05:09:55;;;;;;;41.60;28.35;;;;;;;10.74;68.63;99386.88;5020806;28;20088;-83
2021/04/30 05:12:22;;;;;;;40.15;27.40;;;;;;;10.77;68.64;99394.59;5033745;28;20060;-83
2021/04/30 05:14:48;;;;;;;45.75;28.70;;;;;;;10.78;68.54;99389.25;5034116;28;20050;-83
2021/04/30 05:17:14;;;;;;;36.50;27.83;;;;;;;10.81;68.73;99383.75;5033702;28;20410;-84
2021/04/30 05:19:40;;;;;;;38.17;27.83;;;;;;;10.84;68.79;99393.25;5027440;28;20562;-84
2021/04/30 05:22:10;;;;;;;35.60;25.00;;;;;;;10.85;68.77;99389.69;5013991;28;20491;-84
2021/04/30 05:24:40;;;;;;;36.97;25.88;;;;;;;10.89;68.96;99387.69;5014006;28;20577;-83
2021/04/30 05:27:09;;;;;;;41.80;27.42;;;;;;;10.92;68.94;99392.78;5014000;28;20046;-83
2021/04/30 05:29:39;;;;;;;37.92;26.35;;;;;;;10.95;68.80;99400.44;5017961;28;20049;-82
2021/04/30 05:32:05;;;;;;;41.35;29.30;;;;;;;11.00;68.84;99405.44;5033254;28;20057;-83
2021/04/30 05:34:34;;;;;;;37.65;27.00;;;;;;;11.02;68.78;99412.28;5033780;28;20050;-83
2021/04/30 05:37:00;;;;;;;42.83;28.83;;;;;;;11.05;68.81;99409.47;5033503;28;20053;-82
2021/04/30 05:39:26;;;;;;;38.17;27.30;;;;;;;11.08;68.84;99425.09;5029256;28;20058;-82
2021/04/30 05:41:52;;;;;;;35.58;26.77;;;;;;;11.12;68.75;99423.09;5013761;28;20054;-82
2021/04/30 05:44:19;;;;;;;41.90;27.77;;;;;;;11.14;68.72;99418.53;5032109;28;20049;-83
2021/04/30 05:46:45;;;;;;;40.15;28.15;;;;;;;11.17;68.61;99413.09;5033650;28;20077;-83
2021/04/30 05:49:11;;;;;;;40.80;29.42;;;;;;;11.20;68.41;99417.31;5032671;28;20438;-82
2021/04/30 05:51:37;;;;;;;38.70;28.33;;;;;;;11.22;68.51;99415.44;5013894;28;20112;-83
2021/04/30 05:54:03;;;;;;;40.58;30.00;;;;;;;11.24;68.63;99416.16;5013585;28;20104;-83
2021/04/30 05:56:30;;;;;;;44.47;29.75;;;;;;;11.26;68.67;99419.56;5021994;28;20117;-83
2021/04/30 05:58:56;;;;;;;45.47;29.33;;;;;;;11.30;68.52;99420.19;5033620;28;20045;-83
2021/04/30 06:01:23;;;;;;;41.40;29.02;;;;;;;11.30;68.48;99415.78;5032162;28;20056;-83
2021/04/30 06:03:49;;;;;;;44.05;29.30;;;;;;;11.32;68.63;99416.50;5033505;28;20050;-83
2021/04/30 06:06:16;;;;;;;47.25;30.45;;;;;;;11.34;68.77;99409.34;5025977;28;20403;-83
2021/04/30 06:08:42;;;;;;;46.05;31.52;;;;;;;11.38;68.83;99403.88;5013955;28;20057;-83
2021/04/30 06:11:08;;;;;;;43.75;32.58;;;;;;;11.41;68.92;99403.69;5033070;28;20057;-83
2021/04/30 06:13:34;;;;;;;45.60;31.30;;;;;;;11.46;69.06;99396.31;5032789;28;20053;-83
2021/04/30 06:16:00;;;;;;;46.50;31.23;;;;;;;11.53;69.02;99399.38;5028365;28;20044;-83
2021/04/30 06:18:27;;;;;;;51.53;33.47;;;;;;;11.57;68.82;99399.06;5013855;28;20065;-83
2021/04/30 06:20:53;;;;;;;39.22;27.73;;;;;;;11.62;68.53;99405.84;5013076;28;20046;-83
2021/04/30 06:23:19;;;;;;;38.08;26.92;;;;;;;11.66;68.34;99407.31;5013770;28;20056;-83
2021/04/30 06:25:45;;;;;;;37.72;27.73;;;;;;;11.68;68.22;99410.69;5014077;28;20056;-83
2021/04/30 06:28:14;;;;;;;39.40;28.10;;;;;;;11.70;68.25;99416.72;5013460;28;20049;-83
2021/04/30 06:30:40;;;;;;;35.22;26.23;;;;;;;11.73;68.26;99416.47;5013357;28;20053;-83
2021/04/30 06:33:10;;;;;;;35.75;24.65;;;;;;;11.73;67.70;99419.13;5013114;28;19921;-83
2021/04/30 06:35:37;;;;;;;36.63;25.95;;;;;;;11.76;67.97;99421.56;5013169;28;20050;-83
2021/04/30 06:38:03;;;;;;;38.03;27.10;;;;;;;11.78;67.88;99424.91;5033966;28;20079;-82
2021/04/30 06:40:30;;;;;;;35.92;26.52;;;;;;;11.80;67.70;99424.81;5035082;28;20049;-82
2021/04/30 06:42:56;;;;;;;34.92;26.42;;;;;;;11.80;67.77;99422.19;5036377;28;20049;-82
2021/04/30 06:45:23;;;;;;;34.50;26.08;;;;;;;11.79;67.68;99424.00;5036430;28;20057;-83
2021/04/30 06:47:49;;;;;;;32.03;23.95;;;;;;;11.79;67.68;99426.63;5018061;28;20050;-83
2021/04/30 06:50:15;;;;;;;35.30;26.50;;;;;;;11.78;67.57;99424.91;5015592;28;20128;-83
2021/04/30 06:52:43;;;;;;;31.17;24.35;;;;;;;11.78;67.73;99438.09;5015444;28;20046;-83
2021/04/30 06:55:10;;;;;;;37.55;24.77;;;;;;;11.79;67.72;99439.81;5015916;28;20116;-82
2021/04/30 06:57:41;;;;;;;27.35;21.20;;;;;;;11.80;67.93;99436.22;5032197;28;20041;-82
2021/04/30 07:00:09;;;;;;;32.53;24.42;;;;;;;11.82;68.15;99436.94;5022977;28;20073;-82
2021/04/30 07:02:35;;;;;;;30.58;23.60;;;;;;;11.86;68.12;99440.25;5016273;28;20049;-83
2021/04/30 07:05:02;;;;;;;32.70;24.65;;;;;;;11.92;68.24;99444.28;5016391;28;20078;-82
2021/04/30 07:07:28;;;;;;;33.03;25.42;;;;;;;11.97;68.50;99442.16;5016331;28;20506;-82
2021/04/30 07:09:54;;;;;;;34.63;25.65;;;;;;;12.03;68.34;99441.72;5024929;28;20541;-82
2021/04/30 07:12:20;;;;;;;35.05;24.77;;;;;;;12.09;67.99;99441.34;5030478;28;20530;-82
2021/04/30 07:14:46;;;;;;;35.22;25.55;;;;;;;12.16;67.94;99448.84;5016012;28;20115;-82
2021/04/30 07:17:13;;;;;;;29.27;23.90;;;;;;;12.22;68.04;99449.25;5015996;28;20049;-82
2021/04/30 07:19:39;;;;;;;36.08;26.40;;;;;;;12.28;68.00;99447.13;5023318;28;20050;-82
2021/04/30 07:22:14;;;;;;;36.22;26.15;;;;;;;12.33;67.84;99451.16;5035884;28;20359;-83
2021/04/30 07:24:41;;;;;;;38.15;26.05;;;;;;;12.38;67.51;99450.84;5035395;28;20517;-83
2021/04/30 07:27:07;;;;;;;37.63;25.23;;;;;;;12.43;67.56;99448.72;5035947;28;20045;-82
2021/04/30 07:29:34;;;;;;;33.25;24.25;;;;;;;12.47;67.40;99459.91;5028698;28;20053;-82
2021/04/30 07:32:01;;;;;;;33.05;24.98;;;;;;;12.49;67.35;99458.84;5016409;28;20061;-82
2021/04/30 07:34:37;;;;;;;30.08;23.50;;;;;;;12.54;67.32;99460.31;5015741;28;20069;-82
2021/04/30 07:37:04;;;;;;;28.27;22.50;;;;;;;12.57;67.16;99463.59;5015827;28;20046;-82
2021/04/30 07:39:32;;;;;;;32.65;24.30;;;;;;;12.60;66.84;99466.00;5033992;28;20053;-82
2021/04/30 07:41:59;;;;;;;29.15;23.98;;;;;;;12.67;67.39;99473.50;5034150;28;20053;-82
2021/04/30 07:44:26;;;;;;;27.33;22.40;;;;;;;12.71;67.17;99475.00;5029392;28;20050;-82
2021/04/30 07:46:53;;;;;;;32.85;22.17;;;;;;;12.74;66.87;99482.66;5014561;28;20042;-82
2021/04/30 07:49:19;;;;;;;30.35;24.27;;;;;;;12.79;66.96;99485.00;5015378;28;20129;-82
2021/04/30 07:51:45;;;;;;;32.22;23.30;;;;;;;12.82;66.95;99482.97;5015771;28;20060;-82
2021/04/30 07:54:11;;;;;;;26.77;20.75;;;;;;;12.88;66.81;99485.19;5016485;28;20108;-82
2021/04/30 07:56:38;;;;;;;30.05;23.13;;;;;;;12.96;66.48;99475.84;5034053;28;20103;-82
2021/04/30 07:59:04;;;;;;;27.92;22.90;;;;;;;13.02;66.57;99467.50;5034115;28;20059;-82
2021/04/30 08:01:30;;;;;;;33.42;23.08;;;;;;;13.07;66.43;99468.03;5033979;28;20046;-82
2021/04/30 08:03:57;;;;;;;34.03;24.83;;;;;;;13.10;66.03;99469.59;5033301;28;20049;-82
2021/04/30 08:06:23;;;;;;;28.70;23.27;;;;;;;13.13;65.83;99472.84;5013833;28;20042;-82
2021/04/30 08:08:49;;;;;;;29.75;21.90;;;;;;;13.14;65.96;99471.06;5013086;28;20177;-82
2021/04/30 08:11:15;;;;;;;32.75;23.00;;;;;;;13.14;66.04;99479.84;5014124;28;20073;-82
2021/04/30 08:13:41;;;;;;;31.30;23.38;;;;;;;13.15;65.62;99483.31;5013782;28;20049;-82
2021/04/30 08:16:09;;;;;;;29.70;23.48;;;;;;;13.14;65.45;99490.41;5014885;28;20057;-82
2021/04/30 08:18:35;;;;;;;30.73;23.48;;;;;;;13.12;65.37;99479.09;5013802;28;20100;-82
2021/04/30 08:21:02;;;;;;;34.97;23.45;;;;;;;13.12;64.98;99488.84;5013931;28;20104;-82
2021/04/30 08:23:28;;;;;;;28.65;23.25;;;;;;;13.09;64.83;99484.59;5013621;28;20049;-82
2021/04/30 08:25:54;;;;;;;31.58;23.60;;;;;;;13.08;64.75;99484.72;5029071;28;20053;-82
2021/04/30 08:28:21;;;;;;;27.55;22.50;;;;;;;13.07;65.42;99486.50;5033290;28;20095;-82
2021/04/30 08:30:47;;;;;;;26.05;21.80;;;;;;;13.09;65.57;99496.97;5032504;28;20052;-82
2021/04/30 08:33:13;;;;;;;26.92;22.40;;;;;;;13.12;65.77;99491.47;5033327;28;20553;-82
2021/04/30 08:35:39;;;;;;;29.33;22.05;;;;;;;13.18;65.53;99496.31;5019834;28;20447;-82
2021/04/30 08:38:05;;;;;;;28.83;21.92;;;;;;;13.25;65.75;99499.34;5013727;28;20057;-82
2021/04/30 08:40:31;;;;;;;32.40;22.35;;;;;;;13.33;65.94;99497.00;5013822;28;20049;-83
2021/04/30 08:42:58;;;;;;;27.63;22.20;;;;;;;13.42;66.21;99504.25;5013311;28;20447;-82
2021/04/30 08:45:26;;;;;;;31.50;22.13;;;;;;;13.54;66.19;99496.41;5024107;28;20053;-82
2021/04/30 08:47:52;;;;;;;31.20;22.98;;;;;;;13.65;66.69;99495.63;5033029;28;20052;-82
2021/04/30 08:50:19;;;;;;;27.60;22.80;;;;;;;13.81;66.41;99503.25;5031655;28;20049;-82
2021/04/30 08:52:45;;;;;;;30.50;22.33;;;;;;;13.94;66.58;99504.00;5033043;28;20465;-82
2021/04/30 08:55:16;;;;;;;26.80;22.90;;;;;;;14.08;66.13;99494.19;5032092;28;20049;-82
2021/04/30 08:57:52;;;;;;;25.58;22.08;;;;;;;14.23;65.64;99493.97;5032658;28;20068;-83
2021/04/30 09:00:19;;;;;;;27.83;22.60;;;;;;;14.34;65.52;99494.00;5032310;28;20521;-83
2021/04/30 09:02:46;;;;;;;28.15;22.58;;;;;;;14.45;65.14;99494.00;5033261;28;20056;-83
2021/04/30 09:05:24;;;;;;;27.63;21.63;;;;;;;14.55;63.92;99499.41;5031707;28;20045;-82
2021/04/30 09:07:50;;;;;;;26.80;21.65;;;;;;;14.70;65.25;99492.06;5032869;28;20046;-82
2021/04/30 09:10:18;;;;;;;22.63;20.20;;;;;;;14.84;65.07;99498.16;5032781;28;20053;-83
2021/04/30 09:12:49;;;;;;;24.23;19.73;;;;;;;14.95;64.60;99492.81;5031695;28;20057;-82
2021/04/30 09:15:21;;;;;;;26.25;21.73;;;;;;;15.05;63.57;99498.22;5023210;28;20050;-82
2021/04/30 09:17:48;;;;;;;25.23;21.13;;;;;;;15.19;64.46;99494.47;5013717;28;20050;-82
2021/04/30 09:20:14;;;;;;;25.05;21.23;;;;;;;15.29;64.63;99486.59;5013666;28;20053;-83
2021/04/30 09:22:41;;;;;;;23.10;19.65;;;;;;;15.40;63.65;99491.03;5013205;28;20049;-82
2021/04/30 09:25:10;;;;;;;28.55;21.38;;;;;;;15.51;63.40;99490.16;5021110;28;20045;-82
2021/04/30 09:27:47;;;;;;;25.27;21.73;;;;;;;15.57;61.58;99497.63;5031323;28;20053;-83
2021/04/30 09:30:30;;;;;;;28.65;21.63;;;;;;;15.63;60.85;99498.94;5031692;28;20391;-83
2021/04/30 09:33:17;;;;;;;25.55;20.15;;;;;;;15.70;60.61;99496.59;5032993;28;20050;-83
2021/04/30 09:35:50;;;;;;;26.33;19.90;;;;;;;15.79;61.62;99500.28;5032065;28;20123;-82
2021/04/30 09:38:36;;;;;;;;;;;;;;;15.81;61.83;99501.03;5032874;28;20403;-83
2021/04/30 09:41:13;;;;;;;24.08;18.17;;;;;;;15.89;60.76;99506.53;5032086;28;19921;-83
2021/04/30 09:43:40;;;;;;;22.60;19.15;;;;;;;15.96;62.27;99504.22;5032653;28;20088;-82
2021/04/30 09:46:26;;;;;;;24.35;20.02;;;;;;;15.96;60.83;99502.41;5031090;28;20076;-83
2021/04/30 09:48:56;;;;;;;23.35;18.98;;;;;;;16.04;61.08;99504.44;5032336;28;20053;-83
2021/04/30 09:51:44;;;;;;;23.20;18.55;;;;;;;16.05;59.57;99510.56;5018495;28;20054;-83
2021/04/30 09:54:20;;;;;;;19.45;17.00;;;;;;;16.12;59.31;99504.59;5012595;28;20046;-82
2021/04/30 09:56:49;;;;;;;20.40;16.45;;;;;;;16.19;60.64;99504.94;5012593;28;20100;-83
2021/04/30 09:59:36;;;;;;;20.55;17.63;;;;;;;16.25;61.23;99504.41;5014572;28;20081;-83
2021/04/30 10:02:27;;;;;;;20.08;17.38;;;;;;;16.24;59.47;99504.53;5030983;28;20192;-82
2021/04/30 10:04:57;;;;;;;22.30;17.85;;;;;;;16.31;59.69;99507.50;5032152;28;20045;-83
2021/04/30 10:07:27;;;;;;;22.25;17.95;;;;;;;16.27;58.13;99505.13;5031960;28;20053;-83
2021/04/30 10:10:00;;;;;;;22.05;17.42;;;;;;;16.24;58.14;99513.38;5031630;28;20422;-83
2021/04/30 10:12:29;;;;;;;21.20;16.73;;;;;;;16.21;59.08;99516.28;5013226;28;20056;-83
2021/04/30 10:14:55;;;;;;;19.73;16.30;;;;;;;16.16;58.80;99521.13;5031659;28;20502;-83
2021/04/30 10:17:21;;;;;;;21.42;17.08;;;;;;;16.08;58.28;99512.97;5035888;28;20049;-82
2021/04/30 10:19:50;;;;;;;26.08;18.58;;;;;;;16.00;57.28;99511.78;5035796;28;20132;-83
2021/04/30 10:22:19;;;;;;;20.83;17.30;;;;;;;15.92;57.47;99521.34;5035279;28;20056;-83
2021/04/30 10:24:54;;;;;;;21.13;17.70;;;;;;;15.78;56.16;99512.72;5036134;28;20045;-83
2021/04/30 10:27:38;;;;;;;25.33;18.73;;;;;;;15.66;56.10;99519.88;5035849;28;20446;-83
2021/04/30 10:30:27;;;;;;;26.88;17.98;;;;;;;15.59;56.36;99522.19;5025187;28;20053;-84
2021/04/30 10:32:56;;;;;;;19.70;17.52;;;;;;;15.46;56.04;99524.16;5036669;28;20061;-84
2021/04/30 10:35:29;;;;;;;19.88;17.60;;;;;;;15.32;56.25;99515.53;5035854;28;20046;-84
2021/04/30 10:38:03;;;;;;;20.20;17.15;;;;;;;15.21;55.97;99512.88;5036025;28;20045;-84
2021/04/30 10:40:30;;;;;;;21.02;18.08;;;;;;;15.12;56.80;99514.50;5019223;28;20050;-84
2021/04/30 10:42:58;;;;;;;22.58;17.77;;;;;;;15.01;57.02;99517.13;5016218;28;20054;-84
2021/04/30 10:45:24;;;;;;;22.42;18.83;;;;;;;14.91;56.90;99520.53;5016084;28;20140;-84
2021/04/30 10:48:08;;;;;;;20.23;17.92;;;;;;;14.77;56.39;99521.59;5014983;28;20115;-84
2021/04/30 10:50:35;;;;;;;21.42;17.33;;;;;;;14.72;57.18;99511.34;5028782;28;20498;-84
2021/04/30 10:53:24;;;;;;;24.90;19.08;;;;;;;14.59;56.78;99518.56;5015052;28;20060;-85
2021/04/30 10:55:50;;;;;;;22.10;18.02;;;;;;;14.53;57.42;99519.91;5015850;28;20046;-84
2021/04/30 10:58:33;;;;;;;23.02;19.05;;;;;;;14.38;57.58;99521.91;5015770;28;20041;-84
2021/04/30 11:01:32;;;;;;;25.80;19.83;;;;;;;14.27;57.66;99511.31;5034947;28;20045;-84
2021/04/30 11:04:10;;;;;;;21.63;18.17;;;;;;;14.19;58.29;99517.19;5035352;28;20053;-84
2021/04/30 11:06:43;;;;;;;24.58;20.08;;;;;;;14.14;58.72;99522.84;5035607;28;20046;-84
2021/04/30 11:09:13;;;;;;;22.77;19.37;;;;;;;14.07;59.04;99514.53;5033988;28;20107;-84
2021/04/30 11:11:42;;;;;;;23.98;18.52;;;;;;;14.07;59.69;99518.97;5027503;28;20400;-85
2021/04/30 11:14:25;;;;;;;23.65;20.25;;;;;;;14.03;59.65;99521.03;5016052;28;20050;-85
2021/04/30 11:16:53;;;;;;;24.67;20.20;;;;;;;14.10;60.27;99517.91;5014083;28;20104;-85
2021/04/30 11:19:21;;;;;;;25.30;19.98;;;;;;;14.12;60.34;99511.53;5017023;28;20050;-85
2021/04/30 11:21:52;;;;;;;24.80;19.98;;;;;;;14.16;60.56;99523.56;5035753;28;20049;-85